Time;durP1;ratioP1;P1;durP2;ratioP2;P2;SDS_P1;SDS_P2;PMS_P1;PMS_P2;Temp;Humidity;BMP_temperature;BMP_pressure;BME280_temperature;BME280_humidity;BME280_pressure;Samples;Min_cycle;Max_cycle;Signal;HPM_P1;HPM_P2
2022/10/29 00:00:20;;;;;;;6.20;0.90;;;22.00;47.50;;;;;;4009302;29;20136;-58
2022/10/29 00:02:43;;;;;;;4.60;1.05;;;22.10;48.30;;;;;;4012536;29;20045;-59
2022/10/29 00:05:06;;;;;;;4.82;0.80;;;22.10;47.90;;;;;;4010356;29;20034;-57
2022/10/29 00:07:28;;;;;;;4.45;0.68;;;22.10;46.40;;;;;;4013928;29;20061;-59
2022/10/29 00:09:51;;;;;;;1.98;0.68;;;22.10;45.10;;;;;;4025923;29;20535;-58
2022/10/29 00:12:13;;;;;;;2.45;0.80;;;22.10;44.30;;;;;;4011167;29;20060;-58
2022/10/29 00:14:36;;;;;;;2.08;0.73;;;22.00;44.30;;;;;;4008970;29;20049;-59
2022/10/29 00:16:58;;;;;;;1.08;0.60;;;22.00;44.80;;;;;;4007088;29;20580;-59
2022/10/29 00:19:21;;;;;;;10.68;1.40;;;22.00;44.10;;;;;;4013183;29;20046;-58
2022/10/29 00:21:43;;;;;;;1.45;0.80;;;22.00;44.30;;;;;;4016254;29;20642;-58
2022/10/29 00:24:08;;;;;;;1.20;0.65;;;22.00;44.50;;;;;;4009438;29;20101;-59
2022/10/29 00:26:32;;;;;;;2.95;1.00;;;22.00;44.40;;;;;;4008757;29;20425;-59
2022/10/29 00:28:56;;;;;;;3.22;0.93;;;22.00;44.60;;;;;;4010300;29;20045;-59
2022/10/29 00:31:19;;;;;;;1.85;0.75;;;22.00;44.50;;;;;;4008127;29;20045;-57
2022/10/29 00:33:42;;;;;;;1.47;0.83;;;22.00;44.60;;;;;;4007589;29;20041;-60
2022/10/29 00:36:12;;;;;;;0.70;0.50;;;22.00;44.80;;;;;;4008750;29;20045;-59
2022/10/29 00:38:35;;;;;;;2.58;0.70;;;22.00;45.10;;;;;;4011825;29;20056;-57
2022/10/29 00:40:58;;;;;;;1.77;0.60;;;22.00;45.20;;;;;;4011339;29;20053;-58
2022/10/29 00:43:23;;;;;;;2.47;0.80;;;22.00;45.00;;;;;;4010455;29;20072;-57
2022/10/29 00:46:00;;;;;;;1.10;0.60;;;22.00;45.20;;;;;;4009507;29;20142;-60
2022/10/29 00:48:25;;;;;;;1.05;0.60;;;22.00;45.50;;;;;;4011603;29;20149;-57
2022/10/29 00:50:48;;;;;;;2.33;0.85;;;22.00;45.70;;;;;;4012066;29;20037;-58
2022/10/29 00:53:11;;;;;;;0.68;0.68;;;22.00;45.40;;;;;;4008978;29;20062;-59
2022/10/29 00:55:33;;;;;;;0.30;0.30;;;22.00;45.50;;;;;;4011819;29;20060;-59
2022/10/29 00:57:59;;;;;;;2.40;0.80;;;22.10;45.60;;;;;;4010449;29;20041;-59
2022/10/29 01:00:22;;;;;;;1.13;0.75;;;22.10;45.60;;;;;;4011179;29;20060;-56
2022/10/29 01:02:45;;;;;;;1.50;0.73;;;22.10;45.70;;;;;;4010941;29;20041;-57
2022/10/29 01:05:10;;;;;;;0.75;0.45;;;22.10;45.90;;;;;;4012490;29;20581;-57
2022/10/29 01:07:33;;;;;;;1.17;0.57;;;22.10;45.80;;;;;;4010439;29;20037;-57
2022/10/29 01:09:56;;;;;;;0.52;0.50;;;22.10;45.60;;;;;;4010524;29;20117;-57
2022/10/29 01:12:31;;;;;;;1.67;0.82;;;22.10;45.30;;;;;;4015964;29;20124;-58
2022/10/29 01:15:08;;;;;;;2.40;0.60;;;22.10;45.20;;;;;;4010776;29;20493;-59
2022/10/29 01:17:45;;;;;;;1.63;0.85;;;22.10;45.20;;;;;;4010332;29;20041;-58
2022/10/29 01:20:17;;;;;;;0.93;0.60;;;22.10;45.20;;;;;;4005033;29;20479;-58
2022/10/29 01:22:50;;;;;;;0.90;0.60;;;22.10;45.20;;;;;;4010783;29;20056;-59
2022/10/29 01:25:24;;;;;;;2.05;0.90;;;22.20;45.20;;;;;;4005939;29;20128;-58
2022/10/29 01:28:02;;;;;;;1.17;0.70;;;22.20;45.20;;;;;;4009047;29;20046;-57
2022/10/29 01:30:53;;;;;;;0.70;0.55;;;22.20;45.10;;;;;;4010756;29;20045;-58
2022/10/29 01:33:40;;;;;;;0.75;0.60;;;22.20;44.70;;;;;;4007089;29;20474;-57
2022/10/29 01:36:06;;;;;;;4.00;1.05;;;22.20;44.90;;;;;;4014505;29;20045;-58
2022/10/29 01:38:36;;;;;;;0.60;0.60;;;22.20;44.50;;;;;;4011663;29;20425;-57
2022/10/29 01:41:12;;;;;;;1.05;0.55;;;22.30;43.90;;;;;;4019965;29;20057;-57
2022/10/29 01:43:56;;;;;;;0.93;0.40;;;22.30;43.80;;;;;;4014604;29;20112;-58
2022/10/29 01:46:24;;;;;;;1.13;0.77;;;22.30;43.60;;;;;;4013053;29;20054;-58
2022/10/29 01:48:52;;;;;;;0.85;0.70;;;22.30;42.50;;;;;;4015222;29;20041;-56
2022/10/29 01:51:24;;;;;;;1.13;0.80;;;22.30;42.50;;;;;;4013175;29;20042;-58
2022/10/29 01:53:47;;;;;;;1.15;0.77;;;22.30;42.50;;;;;;4009097;29;20068;-57
2022/10/29 01:56:09;;;;;;;1.25;0.90;;;22.30;42.60;;;;;;4013654;29;20156;-58
2022/10/29 01:58:36;;;;;;;0.95;0.63;;;22.30;42.60;;;;;;4013328;29;20106;-58
2022/10/29 02:01:13;;;;;;;1.25;0.40;;;22.30;42.20;;;;;;4014340;29;20053;-58
2022/10/29 02:03:41;;;;;;;1.27;0.68;;;22.40;42.10;;;;;;4008905;29;20041;-58
2022/10/29 02:06:24;;;;;;;2.50;0.75;;;22.40;42.10;;;;;;4014704;29;20045;-57
2022/10/29 02:08:56;;;;;;;1.20;0.65;;;22.40;42.50;;;;;;4012219;29;20125;-58
2022/10/29 02:11:33;;;;;;;1.58;0.52;;;22.40;41.90;;;;;;4013930;29;20041;-58
2022/10/29 02:14:05;;;;;;;1.52;0.60;;;22.40;41.60;;;;;;4015075;29;20029;-59
2022/10/29 02:16:29;;;;;;;0.80;0.50;;;22.50;41.60;;;;;;4012378;29;20045;-58
2022/10/29 02:18:52;;;;;;;1.60;0.80;;;22.50;42.20;;;;;;4013900;29;20136;-59
2022/10/29 02:21:18;;;;;;;0.65;0.50;;;22.50;41.70;;;;;;4014121;29;20053;-59
2022/10/29 02:23:41;;;;;;;1.77;0.90;;;22.50;41.80;;;;;;4011641;29;20046;-58
2022/10/29 02:26:03;;;;;;;1.23;0.82;;;22.50;41.60;;;;;;4014009;29;20049;-59
2022/10/29 02:28:26;;;;;;;1.40;0.60;;;22.60;41.30;;;;;;4013522;29;20037;-59
2022/10/29 02:30:49;;;;;;;1.30;0.65;;;22.60;41.20;;;;;;4014105;29;20041;-56
2022/10/29 02:33:12;;;;;;;0.88;0.50;;;22.60;40.70;;;;;;4014766;29;20045;-59
2022/10/29 02:35:34;;;;;;;1.20;0.50;;;22.60;40.20;;;;;;4015045;29;20160;-57
2022/10/29 02:37:57;;;;;;;1.27;0.60;;;22.60;40.10;;;;;;4013595;29;20077;-58
2022/10/29 02:40:19;;;;;;;2.08;0.70;;;22.60;40.30;;;;;;4014492;29;20076;-57
2022/10/29 02:42:42;;;;;;;1.77;0.70;;;22.60;40.50;;;;;;4024474;29;20156;-57
2022/10/29 02:45:05;;;;;;;1.23;0.80;;;22.60;40.60;;;;;;4013822;29;20109;-59
2022/10/29 02:47:27;;;;;;;1.20;0.53;;;22.70;40.30;;;;;;4010588;29;20063;-58
2022/10/29 02:49:50;;;;;;;0.60;0.60;;;22.70;40.00;;;;;;4009546;29;20049;-57
2022/10/29 02:52:13;;;;;;;1.00;0.60;;;22.70;39.40;;;;;;4014759;29;20091;-58
2022/10/29 02:54:35;;;;;;;0.63;0.60;;;22.70;39.20;;;;;;4012151;29;20038;-57
2022/10/29 02:56:58;;;;;;;2.05;0.60;;;22.70;38.80;;;;;;4014840;29;20514;-58
2022/10/29 02:59:20;;;;;;;1.27;0.75;;;22.80;38.70;;;;;;4012672;29;20053;-58
2022/10/29 03:01:43;;;;;;;1.63;0.52;;;22.80;38.80;;;;;;4012727;29;20045;-59
2022/10/29 03:04:05;;;;;;;1.00;0.50;;;22.80;38.60;;;;;;4006703;29;20078;-58
2022/10/29 03:06:28;;;;;;;0.68;0.50;;;22.80;38.50;;;;;;4012831;29;20408;-58
2022/10/29 03:08:51;;;;;;;1.80;0.68;;;22.80;38.40;;;;;;4009563;29;20048;-58
2022/10/29 03:11:13;;;;;;;0.65;0.50;;;22.90;38.20;;;;;;4012260;29;20100;-60
2022/10/29 03:13:36;;;;;;;0.52;0.50;;;22.90;38.20;;;;;;4008135;29;20064;-58
2022/10/29 03:15:58;;;;;;;0.50;0.50;;;22.90;38.20;;;;;;4012232;29;20053;-58
2022/10/29 03:18:21;;;;;;;4.38;0.68;;;22.90;37.80;;;;;;4006631;29;20041;-59
2022/10/29 03:20:44;;;;;;;1.23;0.65;;;22.90;37.80;;;;;;4011919;29;20054;-58
2022/10/29 03:23:06;;;;;;;2.60;1.20;;;23.00;38.00;;;;;;4012026;29;20514;-57
2022/10/29 03:25:29;;;;;;;2.25;0.90;;;23.00;38.10;;;;;;4013428;29;20793;-59
2022/10/29 03:27:51;;;;;;;2.50;1.10;;;23.00;37.80;;;;;;4009111;29;21614;-59
2022/10/29 03:30:16;;;;;;;2.97;1.00;;;23.00;37.80;;;;;;4013127;29;20136;-59
2022/10/29 03:32:43;;;;;;;2.05;1.02;;;23.00;37.70;;;;;;4012434;29;20052;-58
2022/10/29 03:35:06;;;;;;;1.80;0.93;;;23.10;37.70;;;;;;4013298;29;20073;-57
2022/10/29 03:37:29;;;;;;;1.45;0.70;;;23.10;37.50;;;;;;4010188;29;20522;-59
2022/10/29 03:39:51;;;;;;;1.05;0.70;;;23.10;37.40;;;;;;4009977;29;20378;-59
2022/10/29 03:42:14;;;;;;;1.52;0.73;;;23.20;37.20;;;;;;4011746;29;20503;-59
2022/10/29 03:44:36;;;;;;;0.98;0.68;;;23.20;37.20;;;;;;4011239;29;20037;-59
2022/10/29 03:46:59;;;;;;;0.45;0.43;;;23.20;36.90;;;;;;4010906;29;20064;-58
2022/10/29 03:49:21;;;;;;;1.17;0.65;;;23.30;36.80;;;;;;4011788;29;20055;-60
2022/10/29 03:51:44;;;;;;;1.05;0.73;;;23.30;36.60;;;;;;4009800;29;20072;-60
2022/10/29 03:54:06;;;;;;;0.60;0.40;;;23.30;36.60;;;;;;4010352;29;20105;-60
2022/10/29 03:56:29;;;;;;;1.45;0.50;;;23.30;36.20;;;;;;4008978;29;20050;-60
2022/10/29 03:58:51;;;;;;;0.75;0.40;;;23.40;35.90;;;;;;4010955;29;20554;-59
2022/10/29 04:01:14;;;;;;;1.70;0.68;;;23.40;35.70;;;;;;4011334;29;20565;-58
2022/10/29 04:03:40;;;;;;;0.68;0.40;;;23.40;36.50;;;;;;4010076;29;20433;-59
2022/10/29 04:06:13;;;;;;;0.50;0.50;;;23.40;35.80;;;;;;4011095;29;20053;-59
2022/10/29 04:08:35;;;;;;;4.78;0.70;;;23.50;35.70;;;;;;4009807;29;20143;-60
2022/10/29 04:10:58;;;;;;;0.65;0.63;;;23.50;35.80;;;;;;4011004;29;20041;-60
2022/10/29 04:13:21;;;;;;;0.73;0.52;;;23.60;36.00;;;;;;4006108;29;20053;-60
2022/10/29 04:15:43;;;;;;;0.88;0.45;;;23.70;36.10;;;;;;4011745;29;20349;-58
2022/10/29 04:18:07;;;;;;;1.15;0.40;;;23.70;35.90;;;;;;4010764;29;20417;-59
2022/10/29 04:20:29;;;;;;;0.75;0.60;;;23.80;36.00;;;;;;4012466;29;20057;-59
2022/10/29 04:22:52;;;;;;;0.40;0.40;;;23.80;35.80;;;;;;4012589;29;20434;-59
2022/10/29 04:25:14;;;;;;;0.52;0.50;;;23.80;35.80;;;;;;4013382;29;20053;-59
2022/10/29 04:27:37;;;;;;;1.02;0.63;;;23.90;35.80;;;;;;4011524;29;20037;-60
2022/10/29 04:29:59;;;;;;;0.47;0.47;;;24.00;36.00;;;;;;4011288;29;20075;-60
2022/10/29 04:32:22;;;;;;;0.73;0.60;;;24.00;35.80;;;;;;4013202;29;20050;-60
2022/10/29 04:34:44;;;;;;;0.80;0.60;;;24.10;35.90;;;;;;4011592;29;20050;-59
2022/10/29 04:37:07;;;;;;;0.55;0.43;;;24.10;35.50;;;;;;4012193;29;20124;-60
2022/10/29 04:39:29;;;;;;;0.50;0.40;;;24.20;35.90;;;;;;4010888;29;20049;-59
2022/10/29 04:41:52;;;;;;;1.20;0.70;;;24.20;35.50;;;;;;4010805;29;20045;-60
2022/10/29 04:44:14;;;;;;;0.55;0.45;;;24.20;35.60;;;;;;4009832;29;20049;-59
2022/10/29 04:46:37;;;;;;;0.50;0.50;;;24.30;35.70;;;;;;4011595;29;20033;-60
2022/10/29 04:48:59;;;;;;;0.90;0.70;;;24.30;35.50;;;;;;4008797;29;20053;-60
2022/10/29 04:51:25;;;;;;;0.40;0.40;;;24.40;35.50;;;;;;4006221;29;20056;-60
2022/10/29 04:53:48;;;;;;;1.13;0.65;;;24.40;35.20;;;;;;4007191;29;20565;-60
2022/10/29 04:56:10;;;;;;;1.33;0.70;;;24.50;35.50;;;;;;4023015;29;20057;-60
2022/10/29 04:58:33;;;;;;;1.00;0.52;;;24.50;35.40;;;;;;4024079;29;20033;-60
2022/10/29 05:01:03;;;;;;;0.88;0.68;;;24.60;35.30;;;;;;4012245;29;20061;-60
2022/10/29 05:03:26;;;;;;;0.98;0.65;;;24.60;35.80;;;;;;4011692;29;20221;-61
2022/10/29 05:05:48;;;;;;;1.35;0.65;;;24.70;35.50;;;;;;4011647;29;20065;-60
2022/10/29 05:08:11;;;;;;;0.73;0.50;;;24.70;35.50;;;;;;4010768;29;20820;-60
2022/10/29 05:10:37;;;;;;;1.67;0.82;;;24.80;35.20;;;;;;4013824;29;20593;-60
2022/10/29 05:13:01;;;;;;;1.35;0.57;;;24.80;35.40;;;;;;4012461;29;20522;-60
2022/10/29 05:15:24;;;;;;;0.98;0.60;;;24.80;34.90;;;;;;4014614;29;20105;-60
2022/10/29 05:17:47;;;;;;;0.68;0.57;;;24.90;35.30;;;;;;4014277;29;20041;-60
2022/10/29 05:20:10;;;;;;;0.70;0.55;;;25.00;35.10;;;;;;4010783;29;20049;-60
2022/10/29 05:22:32;;;;;;;0.90;0.53;;;25.00;35.10;;;;;;4013483;29;20049;-60
2022/10/29 05:24:55;;;;;;;0.73;0.45;;;25.10;34.70;;;;;;4012048;29;20089;-61
2022/10/29 05:27:17;;;;;;;1.48;0.50;;;25.10;34.80;;;;;;4014205;29;20057;-60
2022/10/29 05:29:40;;;;;;;0.55;0.45;;;25.10;34.60;;;;;;4013122;29;20053;-60
2022/10/29 05:32:02;;;;;;;0.70;0.50;;;25.10;34.70;;;;;;4014934;29;20156;-61
2022/10/29 05:34:25;;;;;;;1.38;0.73;;;25.20;34.90;;;;;;4012752;29;20042;-60
2022/10/29 05:36:48;;;;;;;1.17;0.50;;;25.20;34.70;;;;;;4013912;29;20051;-61
2022/10/29 05:39:10;;;;;;;1.20;0.47;;;25.30;34.70;;;;;;4012111;29;20497;-60
2022/10/29 05:41:33;;;;;;;0.65;0.55;;;25.40;34.90;;;;;;4012657;29;20124;-61
2022/10/29 05:43:55;;;;;;;1.10;0.60;;;25.40;34.60;;;;;;4009552;29;20493;-60
2022/10/29 05:46:18;;;;;;;1.88;0.60;;;25.40;34.70;;;;;;4013625;29;20113;-60
2022/10/29 05:48:40;;;;;;;0.95;0.77;;;25.50;34.90;;;;;;4012632;29;20097;-59
2022/10/29 05:51:03;;;;;;;1.67;0.70;;;25.60;34.80;;;;;;4014215;29;20077;-61
2022/10/29 05:53:26;;;;;;;1.65;0.75;;;25.60;34.90;;;;;;4013177;29;20421;-60
2022/10/29 05:55:48;;;;;;;1.70;0.60;;;25.60;34.90;;;;;;4014702;29;20300;-62
2022/10/29 05:58:13;;;;;;;1.02;0.50;;;25.70;34.40;;;;;;4011557;29;20042;-61
2022/10/29 06:00:38;;;;;;;1.65;0.90;;;25.70;34.70;;;;;;4014625;29;20530;-62
2022/10/29 06:03:00;;;;;;;1.55;0.57;;;25.70;34.40;;;;;;4013616;29;20097;-60
2022/10/29 06:05:23;;;;;;;1.85;0.90;;;25.70;34.40;;;;;;4012825;29;20052;-59
2022/10/29 06:07:46;;;;;;;1.27;0.63;;;25.80;34.70;;;;;;4013891;29;20085;-60
2022/10/29 06:10:08;;;;;;;1.13;0.70;;;25.80;34.60;;;;;;4024940;29;20056;-59
2022/10/29 06:12:32;;;;;;;0.77;0.60;;;25.80;34.40;;;;;;4014198;29;20060;-59
2022/10/29 06:14:55;;;;;;;0.82;0.68;;;25.80;34.60;;;;;;4012025;29;20057;-60
2022/10/29 06:17:17;;;;;;;1.27;0.63;;;25.90;34.60;;;;;;4014757;29;20591;-60
2022/10/29 06:19:40;;;;;;;1.73;0.57;;;25.90;34.70;;;;;;4051796;23;20049;-61
2022/10/29 06:22:03;;;;;;;1.13;0.60;;;25.90;34.90;;;;;;4054446;29;20044;-61
2022/10/29 06:24:25;;;;;;;0.82;0.52;;;25.90;34.70;;;;;;4056884;29;20047;-58
2022/10/29 06:26:48;;;;;;;2.05;0.70;;;25.90;34.70;;;;;;4058915;29;20044;-60
2022/10/29 06:29:10;;;;;;;1.30;0.80;;;26.00;35.10;;;;;;4055680;29;20075;-60
2022/10/29 06:31:33;;;;;;;0.60;0.50;;;26.00;34.80;;;;;;4057635;29;20040;-60
2022/10/29 06:33:56;;;;;;;0.98;0.50;;;26.00;35.00;;;;;;4059996;29;20052;-60
2022/10/29 06:36:18;;;;;;;1.17;0.50;;;25.90;34.90;;;;;;4056805;29;20040;-60
2022/10/29 06:38:41;;;;;;;1.02;0.60;;;26.00;34.90;;;;;;4057679;29;20043;-60
2022/10/29 06:41:04;;;;;;;1.20;0.50;;;26.00;34.90;;;;;;4059376;29;20090;-60
2022/10/29 06:43:26;;;;;;;1.63;0.60;;;26.00;35.00;;;;;;4050562;29;20040;-60
2022/10/29 06:45:50;;;;;;;0.50;0.50;;;26.00;35.00;;;;;;4050027;29;20084;-60
2022/10/29 06:48:12;;;;;;;0.82;0.50;;;26.00;34.90;;;;;;4055442;29;20054;-59
2022/10/29 06:50:38;;;;;;;0.80;0.70;;;26.00;35.10;;;;;;4093556;23;21319;-52
2022/10/29 06:53:06;;;;;;;0.50;0.40;;;26.00;35.40;;;;;;4050479;29;20581;-52
2022/10/29 06:55:29;;;;;;;1.75;0.60;;;26.00;35.20;;;;;;4051762;29;20500;-51
2022/10/29 06:58:07;;;;;;;1.27;0.60;;;26.00;35.30;;;;;;4053586;29;20098;-52
2022/10/29 07:00:30;;;;;;;0.77;0.50;;;26.00;35.20;;;;;;4053428;29;20440;-51
2022/10/29 07:02:52;;;;;;;;;;;25.90;35.00;;;;;;4051114;29;20911;-53
2022/10/29 07:05:15;;;;;;;0.95;0.68;;;25.90;35.10;;;;;;4051854;29;20371;-52
2022/10/29 07:07:38;;;;;;;2.72;0.60;;;25.90;34.90;;;;;;4053388;29;20456;-54
2022/10/29 07:10:00;;;;;;;0.95;0.55;;;25.90;34.90;;;;;;4052827;29;20059;-53
2022/10/29 07:12:23;;;;;;;0.88;0.50;;;25.90;34.90;;;;;;4050981;29;20992;-53
2022/10/29 07:14:45;;;;;;;1.95;1.00;;;25.90;34.90;;;;;;4051276;29;20485;-53
2022/10/29 07:17:08;;;;;;;2.20;1.10;;;25.90;34.80;;;;;;4051545;29;20070;-53
2022/10/29 07:19:30;;;;;;;4.43;1.02;;;25.90;34.70;;;;;;4049107;29;20147;-53
2022/10/29 07:22:04;;;;;;;2.85;1.10;;;25.80;34.50;;;;;;4053552;29;20778;-53
2022/10/29 07:24:30;;;;;;;2.10;0.80;;;25.80;34.70;;;;;;4052356;29;20127;-51
2022/10/29 07:26:53;;;;;;;1.73;0.90;;;25.80;34.80;;;;;;4053727;29;20121;-50
2022/10/29 07:29:15;;;;;;;2.15;1.08;;;25.80;34.60;;;;;;4052260;29;20355;-53
2022/10/29 07:31:38;;;;;;;3.63;1.38;;;25.70;35.00;;;;;;4048965;29;20036;-49
2022/10/29 07:34:00;;;;;;;2.92;0.90;;;25.70;35.10;;;;;;4050982;29;20076;-51
2022/10/29 07:36:24;;;;;;;4.80;1.63;;;25.80;35.10;;;;;;4051302;29;20040;-55
2022/10/29 07:38:47;;;;;;;5.85;1.88;;;25.70;35.00;;;;;;4053378;29;20219;-51
2022/10/29 07:41:10;;;;;;;3.60;1.63;;;25.70;35.40;;;;;;4041637;29;20603;-49
2022/10/29 07:43:32;;;;;;;5.72;2.83;;;25.70;35.40;;;;;;4052946;29;20287;-52
2022/10/29 07:45:55;;;;;;;5.40;2.60;;;25.70;35.70;;;;;;4053568;29;20044;-50
2022/10/29 07:48:19;;;;;;;6.40;2.72;;;25.70;35.50;;;;;;4052274;29;20381;-53
2022/10/29 07:50:42;;;;;;;4.82;2.55;;;25.70;35.90;;;;;;4053514;29;20370;-50
2022/10/29 07:53:09;;;;;;;5.00;2.60;;;25.60;36.00;;;;;;4051261;29;20126;-54
2022/10/29 07:55:31;;;;;;;3.80;2.22;;;25.60;36.40;;;;;;4053525;29;20052;-53
2022/10/29 07:58:02;;;;;;;6.82;2.05;;;25.60;36.70;;;;;;4049953;29;20159;-49
2022/10/29 08:00:36;;;;;;;3.95;2.08;;;25.60;36.90;;;;;;4053702;29;20052;-52
2022/10/29 08:02:59;;;;;;;3.88;2.30;;;25.50;36.90;;;;;;4050791;29;20067;-52
2022/10/29 08:05:23;;;;;;;7.18;2.13;;;25.50;37.20;;;;;;4051872;29;20044;-48
2022/10/29 08:07:46;;;;;;;2.92;1.98;;;25.50;36.90;;;;;;4052144;29;20066;-49
2022/10/29 08:10:09;;;;;;;3.95;1.80;;;25.50;37.20;;;;;;4052228;29;20554;-51
2022/10/29 08:12:31;;;;;;;4.40;1.58;;;25.50;37.80;;;;;;4053007;29;20801;-47
2022/10/29 08:14:57;;;;;;;3.38;1.73;;;25.40;38.10;;;;;;4047233;29;20071;-47
2022/10/29 08:17:19;;;;;;;2.75;1.42;;;25.50;38.00;;;;;;4053415;29;20160;-48
2022/10/29 08:19:42;;;;;;;3.35;1.48;;;25.40;37.60;;;;;;4048901;29;20204;-51
2022/10/29 08:22:04;;;;;;;2.83;1.60;;;25.40;37.70;;;;;;4052901;29;20067;-46
2022/10/29 08:24:27;;;;;;;3.33;1.50;;;25.40;38.00;;;;;;4053187;29;20145;-49
2022/10/29 08:26:52;;;;;;;3.10;1.42;;;25.40;38.10;;;;;;4052937;29;20412;-47
2022/10/29 08:29:15;;;;;;;3.00;1.50;;;25.40;38.20;;;;;;4053266;29;20056;-49
2022/10/29 08:31:38;;;;;;;2.65;1.13;;;25.40;38.30;;;;;;4054792;29;20678;-49
2022/10/29 08:34:00;;;;;;;2.38;1.15;;;25.40;38.50;;;;;;4063711;29;20453;-54
2022/10/29 08:36:23;;;;;;;3.15;1.40;;;25.40;38.40;;;;;;4051939;29;20781;-49
2022/10/29 08:38:47;;;;;;;1.90;1.00;;;25.30;38.40;;;;;;4055012;29;20051;-50
2022/10/29 08:41:13;;;;;;;1.67;0.98;;;25.30;38.40;;;;;;4052534;29;20051;-49
2022/10/29 08:43:47;;;;;;;1.92;1.20;;;25.30;38.20;;;;;;4055913;29;20075;-51
2022/10/29 08:46:36;;;;;;;1.88;1.00;;;25.30;38.50;;;;;;4056113;29;20127;-50
2022/10/29 08:49:04;;;;;;;1.50;0.85;;;25.30;38.70;;;;;;4027003;29;20117;-49
2022/10/29 08:51:37;;;;;;;2.28;1.23;;;25.20;39.00;;;;;;4055322;29;20056;-47
2022/10/29 08:54:00;;;;;;;1.80;1.10;;;25.20;39.10;;;;;;4056456;29;20876;-49
2022/10/29 08:56:32;;;;;;;2.70;1.30;;;25.20;39.10;;;;;;4055533;29;20036;-48
2022/10/29 08:59:16;;;;;;;1.90;0.80;;;25.20;39.30;;;;;;4050676;29;20041;-52
2022/10/29 09:01:41;;;;;;;2.72;1.13;;;25.20;39.40;;;;;;4052537;29;20044;-50
2022/10/29 09:04:15;;;;;;;2.72;0.90;;;25.20;39.50;;;;;;4057413;29;20475;-45
2022/10/29 09:07:03;;;;;;;1.30;0.90;;;25.20;39.70;;;;;;4057465;29;20121;-47
2022/10/29 09:09:34;;;;;;;2.10;1.20;;;25.20;39.80;;;;;;4054012;29;20157;-49
2022/10/29 09:12:03;;;;;;;1.20;0.77;;;25.10;39.90;;;;;;4054736;29;20036;-49
2022/10/29 09:14:57;;;;;;;1.35;0.88;;;25.10;40.10;;;;;;4055882;29;20595;-47
2022/10/29 09:17:42;;;;;;;1.63;0.90;;;25.10;40.20;;;;;;4050881;29;20132;-48
2022/10/29 09:20:23;;;;;;;2.17;0.93;;;25.10;40.30;;;;;;4050959;29;20358;-47
2022/10/29 09:23:07;;;;;;;2.58;1.00;;;25.10;40.10;;;;;;4048501;29;20119;-46
2022/10/29 09:25:57;;;;;;;1.27;0.95;;;25.10;40.30;;;;;;4049285;29;20040;-47
2022/10/29 09:28:43;;;;;;;1.85;0.88;;;25.10;40.50;;;;;;4051250;29;20080;-50
2022/10/29 09:31:46;;;;;;;1.52;0.90;;;25.10;40.70;;;;;;4048340;29;20124;-47
2022/10/29 09:34:22;;;;;;;1.20;0.80;;;25.10;40.70;;;;;;4052525;29;20047;-54
2022/10/29 09:36:46;;;;;;;2.33;1.05;;;25.10;40.90;;;;;;4051095;29;20047;-52
2022/10/29 09:39:38;;;;;;;1.10;0.63;;;25.00;40.80;;;;;;4047891;29;20044;-52
2022/10/29 09:42:02;;;;;;;1.67;0.98;;;25.00;40.90;;;;;;4050064;29;20567;-48
2022/10/29 09:44:45;;;;;;;2.10;0.93;;;25.00;40.80;;;;;;4055408;29;20051;-49
2022/10/29 09:47:19;;;;;;;1.52;1.02;;;25.00;40.80;;;;;;4052415;29;20044;-54
2022/10/29 09:49:54;;;;;;;1.40;0.90;;;25.00;40.80;;;;;;4055886;29;20032;-50
2022/10/29 09:52:21;;;;;;;1.33;0.80;;;25.00;40.90;;;;;;4054142;29;20138;-47
2022/10/29 09:54:45;;;;;;;1.80;1.15;;;25.00;41.10;;;;;;4053074;29;20036;-47
2022/10/29 09:57:17;;;;;;;1.30;0.98;;;24.90;41.10;;;;;;4057504;29;20044;-51
2022/10/29 09:59:47;;;;;;;2.65;0.90;;;24.90;41.10;;;;;;4057594;29;20087;-49
2022/10/29 10:02:24;;;;;;;1.48;0.90;;;24.90;41.20;;;;;;4057176;29;20048;-50
2022/10/29 10:04:50;;;;;;;1.98;1.02;;;24.90;41.20;;;;;;4054231;29;20654;-48
2022/10/29 10:07:20;;;;;;;1.77;0.90;;;24.90;41.30;;;;;;4056137;29;20037;-50
2022/10/29 10:09:53;;;;;;;2.17;1.02;;;24.90;41.30;;;;;;4058687;29;20043;-49
2022/10/29 10:12:16;;;;;;;2.20;1.10;;;24.80;41.20;;;;;;4053058;29;20127;-51
2022/10/29 10:14:39;;;;;;;1.38;0.90;;;24.80;41.30;;;;;;4057566;29;20048;-47
2022/10/29 10:17:02;;;;;;;1.35;1.10;;;24.80;41.20;;;;;;4060198;29;20085;-53
2022/10/29 10:19:28;;;;;;;1.37;1.00;;;24.80;41.40;;;;;;4058248;29;20059;-48
2022/10/29 10:22:02;;;;;;;2.28;1.13;;;24.80;41.30;;;;;;4051536;29;20056;-48
2022/10/29 10:24:39;;;;;;;1.58;1.00;;;24.80;41.20;;;;;;4058473;29;20407;-50
2022/10/29 10:27:30;;;;;;;1.98;1.30;;;24.80;41.30;;;;;;4059530;29;20348;-49
2022/10/29 10:30:08;;;;;;;1.40;0.80;;;24.80;41.40;;;;;;4057387;29;20209;-47
2022/10/29 10:32:31;;;;;;;3.00;0.90;;;24.80;41.30;;;;;;4060700;29;20044;-48
2022/10/29 10:34:53;;;;;;;2.13;1.07;;;24.80;41.30;;;;;;4061105;29;20047;-47
2022/10/29 10:37:18;;;;;;;1.85;0.80;;;24.80;41.40;;;;;;4050986;29;20770;-47
2022/10/29 10:39:44;;;;;;;1.65;0.95;;;24.70;41.20;;;;;;4061183;29;20139;-53
2022/10/29 10:42:35;;;;;;;1.67;0.90;;;24.70;41.10;;;;;;4059801;29;20118;-52
2022/10/29 10:45:11;;;;;;;1.95;1.00;;;24.70;40.90;;;;;;4059664;29;20044;-48
2022/10/29 10:47:40;;;;;;;1.98;1.25;;;24.70;40.80;;;;;;4053538;29;20040;-53
2022/10/29 10:50:26;;;;;;;3.47;2.05;;;24.70;40.80;;;;;;4059864;29;20179;-52
2022/10/29 10:52:49;;;;;;;3.92;2.58;;;24.70;40.90;;;;;;4050486;29;20227;-48
2022/10/29 10:55:22;;;;;;;4.28;2.85;;;24.70;40.90;;;;;;4049131;29;20059;-46
2022/10/29 10:58:10;;;;;;;4.03;2.80;;;24.60;40.80;;;;;;4056206;29;20040;-48
2022/10/29 11:00:50;;;;;;;6.25;3.15;;;24.60;40.80;;;;;;4057886;29;20052;-53
2022/10/29 11:03:23;;;;;;;4.65;3.03;;;24.60;40.80;;;;;;4059034;29;20045;-49
2022/10/29 11:06:06;;;;;;;3.83;2.80;;;24.60;41.30;;;;;;4058500;29;20063;-48
2022/10/29 11:08:37;;;;;;;4.32;2.85;;;24.60;40.80;;;;;;4051736;29;20505;-50
2022/10/29 11:11:07;;;;;;;3.45;2.33;;;24.60;40.70;;;;;;4056659;29;20393;-49
2022/10/29 11:13:33;;;;;;;4.60;2.60;;;24.60;40.80;;;;;;4058852;29;20047;-52
2022/10/29 11:15:58;;;;;;;3.28;2.20;;;24.50;40.70;;;;;;4059485;29;20044;-52
2022/10/29 11:18:44;;;;;;;2.92;2.08;;;24.50;40.80;;;;;;4060298;29;20135;-52
2022/10/29 11:21:37;;;;;;;3.38;1.90;;;24.50;40.80;;;;;;4058888;29;20052;-52
2022/10/29 11:24:06;;;;;;;2.63;1.80;;;24.50;41.50;;;;;;4058520;29;20491;-54
2022/10/29 11:26:34;;;;;;;3.20;2.00;;;24.50;40.80;;;;;;4066781;29;20091;-53
2022/10/29 11:29:21;;;;;;;2.20;1.33;;;24.40;40.80;;;;;;4058226;29;20059;-47
2022/10/29 11:32:24;;;;;;;2.80;1.60;;;24.40;40.80;;;;;;4057454;29;20147;-46
2022/10/29 11:35:03;;;;;;;3.45;1.60;;;24.40;40.90;;;;;;4054957;29;20037;-51
2022/10/29 11:37:49;;;;;;;1.83;1.30;;;24.40;40.80;;;;;;4057256;29;20578;-47
2022/10/29 11:40:18;;;;;;;1.80;1.23;;;24.40;40.80;;;;;;4053515;29;20052;-46
2022/10/29 11:42:41;;;;;;;2.45;1.40;;;24.40;40.90;;;;;;4053925;29;20243;-51
2022/10/29 11:45:04;;;;;;;3.33;1.52;;;24.40;40.90;;;;;;4049900;29;20599;-51
2022/10/29 11:48:04;;;;;;;2.80;1.48;;;24.30;40.80;;;;;;4054817;29;20099;-49
2022/10/29 11:50:45;;;;;;;3.22;1.52;;;24.30;40.80;;;;;;4039008;29;20515;-53
2022/10/29 11:53:57;;;;;;;1.63;1.10;;;24.30;40.90;;;;;;4052947;29;20481;-52
2022/10/29 11:56:38;;;;;;;3.58;1.60;;;24.30;40.90;;;;;;4051111;29;20401;-51
2022/10/29 11:59:38;;;;;;;1.65;1.05;;;24.20;40.80;;;;;;4053791;29;20452;-47
2022/10/29 12:02:34;;;;;;;2.80;1.40;;;24.20;40.80;;;;;;4039745;29;20063;-48
2022/10/29 12:05:14;;;;;;;2.47;1.50;;;24.20;40.90;;;;;;4050899;29;20473;-49
2022/10/29 12:08:33;;;;;;;2.83;1.23;;;24.20;40.90;;;;;;4057536;29;20067;-50
2022/10/29 12:11:16;;;;;;;2.13;1.25;;;24.20;40.90;;;;;;4033649;29;20045;-50
2022/10/29 12:13:38;;;;;;;2.95;1.40;;;24.20;41.00;;;;;;4034345;29;20069;-48
2022/10/29 12:16:10;;;;;;;2.42;1.30;;;24.20;40.90;;;;;;4046136;29;20044;-49
2022/10/29 12:18:51;;;;;;;3.63;1.48;;;24.10;40.90;;;;;;4057139;29;20050;-51
2022/10/29 12:21:30;;;;;;;3.95;1.50;;;24.10;40.90;;;;;;4054752;29;20533;-51
2022/10/29 12:24:18;;;;;;;1.27;1.00;;;24.10;41.00;;;;;;4047405;29;20312;-52
2022/10/29 12:26:58;;;;;;;1.73;1.13;;;24.10;41.10;;;;;;4057142;29;20493;-55
2022/10/29 12:29:46;;;;;;;1.73;1.23;;;24.10;41.00;;;;;;4050262;29;20056;-48
2022/10/29 12:32:44;;;;;;;2.33;1.20;;;24.10;41.00;;;;;;4052666;29;20088;-50
2022/10/29 12:35:31;;;;;;;3.20;1.35;;;24.10;41.10;;;;;;4054475;29;20069;-47
2022/10/29 12:38:11;;;;;;;2.42;1.20;;;24.00;40.90;;;;;;4055049;29;20522;-49
2022/10/29 12:40:42;;;;;;;2.55;1.30;;;24.00;40.90;;;;;;4056894;29;20048;-46
2022/10/29 12:43:12;;;;;;;2.22;1.42;;;24.00;40.90;;;;;;4056112;29;20035;-52
2022/10/29 12:45:41;;;;;;;2.30;1.15;;;24.00;40.90;;;;;;4058626;29;20036;-50
2022/10/29 12:48:17;;;;;;;1.75;1.10;;;24.00;41.00;;;;;;4058507;29;20495;-50
2022/10/29 12:50:39;;;;;;;2.63;1.23;;;24.00;41.00;;;;;;4055959;29;20477;-61
2022/10/29 12:53:41;;;;;;;4.60;1.38;;;24.00;40.90;;;;;;4052275;29;20036;-48